Time;durP1;ratioP1;P1;durP2;ratioP2;P2;SDS_P1;SDS_P2;PMS_P1;PMS_P2;Temp;Humidity;BMP_temperature;BMP_pressure;BME280_temperature;BME280_humidity;BME280_pressure;Samples;Min_cycle;Max_cycle;Signal;HPM_P1;HPM_P2
2021/04/04 00:00:39;;;;;;;0.17;0.17;;;;;;;1.58;93.60;102608.31;10459579;28;20040;-66
2021/04/04 00:05:39;;;;;;;0.17;0.17;;;;;;;1.62;93.50;102616.06;10479485;28;20271;-66
2021/04/04 00:10:39;;;;;;;0.20;0.20;;;;;;;1.59;93.59;102603.91;10486916;28;20017;-66
2021/04/04 00:15:41;;;;;;;0.10;0.10;;;;;;;1.53;93.19;102602.38;10494785;28;20147;-66
2021/04/04 00:20:41;;;;;;;0.20;0.20;;;;;;;1.49;93.22;102613.91;10493398;28;20279;-66
2021/04/04 00:25:43;;;;;;;0.10;0.10;;;;;;;1.43;93.39;102606.25;10494070;28;20024;-66
2021/04/04 00:30:44;;;;;;;0.20;0.20;;;;;;;1.44;93.49;102607.13;10485429;28;20027;-67
2021/04/04 00:35:44;;;;;;;0.20;0.20;;;;;;;1.40;93.11;102609.00;10459807;28;20521;-66
2021/04/04 00:40:45;;;;;;;0.10;0.10;;;;;;;1.34;93.81;102602.19;10453224;28;20366;-66
2021/04/04 00:45:45;;;;;;;0.30;0.30;;;;;;;1.30;93.77;102590.09;10487669;28;20452;-66
2021/04/04 00:50:45;;;;;;;0.20;0.20;;;;;;;1.26;93.11;102588.50;10468008;28;20275;-66
2021/04/04 00:55:46;;;;;;;0.10;0.10;;;;;;;1.20;93.49;102593.97;10452711;28;20264;-67
2021/04/04 01:00:46;;;;;;;0.25;0.25;;;;;;;1.18;93.93;102589.69;10452209;28;20036;-67
2021/04/04 01:05:49;;;;;;;0.20;0.20;;;;;;;1.19;93.60;102586.97;10452512;28;20021;-65
2021/04/04 01:10:50;;;;;;;0.20;0.20;;;;;;;1.29;94.11;102587.53;10505840;28;20038;-66
2021/04/04 01:15:57;;;;;;;0.20;0.20;;;;;;;1.32;93.79;102583.00;10535465;28;20367;-66
2021/04/04 01:21:02;;;;;;;0.10;0.10;;;;;;;1.31;93.43;102576.06;10491054;28;20039;-66
2021/04/04 01:26:12;;;;;;;0.20;0.20;;;;;;;1.29;93.43;102575.25;10455500;28;20086;-66
2021/04/04 01:31:14;;;;;;;0.20;0.20;;;;;;;1.22;93.25;102568.53;10459666;28;20025;-66
2021/04/04 01:36:16;;;;;;;0.20;0.20;;;;;;;1.16;93.01;102581.00;10451226;28;20421;-66
2021/04/04 01:41:43;;;;;;;0.20;0.20;;;;;;;1.14;93.77;102573.19;10450525;28;20112;-65
2021/04/04 01:46:46;;;;;;;0.30;0.30;;;;;;;1.10;93.65;102566.31;10470655;28;20037;-65
2021/04/04 01:51:47;;;;;;;0.20;0.20;;;;;;;1.07;93.33;102561.19;10491790;28;20023;-66
2021/04/04 01:56:49;;;;;;;0.20;0.20;;;;;;;1.06;93.63;102560.34;10492532;28;20066;-65
2021/04/04 02:01:49;;;;;;;0.13;0.13;;;;;;;1.07;93.69;102558.56;10479817;28;20503;-66
2021/04/04 02:06:50;;;;;;;0.10;0.10;;;;;;;1.09;93.57;102559.38;10483964;28;20126;-66
2021/04/04 02:11:53;;;;;;;0.20;0.20;;;;;;;1.02;93.70;102563.13;10507093;28;20467;-65
2021/04/04 02:16:56;;;;;;;0.20;0.20;;;;;;;0.94;93.58;102562.56;10491578;28;20025;-66
2021/04/04 02:21:58;;;;;;;0.20;0.20;;;;;;;0.87;93.82;102556.66;10468442;28;20017;-65
2021/04/04 02:26:58;;;;;;;0.20;0.20;;;;;;;0.89;93.98;102565.34;10450397;28;20068;-65
2021/04/04 02:32:02;;;;;;;0.20;0.20;;;;;;;0.89;94.03;102563.56;10449641;28;20075;-66
2021/04/04 02:37:09;;;;;;;0.20;0.20;;;;;;;0.97;94.28;102565.06;10476231;28;20086;-66
2021/04/04 02:42:12;;;;;;;0.20;0.20;;;;;;;1.04;94.18;102564.78;10492049;28;20024;-66
2021/04/04 02:47:13;;;;;;;0.20;0.20;;;;;;;1.11;94.55;102562.81;10497877;28;20031;-66
2021/04/04 02:52:17;;;;;;;0.17;0.17;;;;;;;1.23;94.70;102557.09;10498588;28;20032;-65
2021/04/04 02:57:21;;;;;;;0.20;0.20;;;;;;;1.32;94.60;102546.25;10498768;28;20120;-65
2021/04/04 03:02:23;;;;;;;0.10;0.10;;;;;;;1.40;94.29;102543.34;10497783;28;20024;-66
2021/04/04 03:07:26;;;;;;;0.20;0.20;;;;;;;1.47;94.55;102536.09;10497200;28;20028;-65
2021/04/04 03:12:28;;;;;;;0.20;0.20;;;;;;;1.60;94.88;102534.72;10459447;28;20032;-66
2021/04/04 03:17:30;;;;;;;0.10;0.10;;;;;;;1.69;94.59;102528.25;10456910;28;20052;-65
2021/04/04 03:22:31;;;;;;;0.20;0.20;;;;;;;1.77;94.30;102523.53;10456294;28;20439;-65
2021/04/04 03:27:31;;;;;;;0.00;0.00;;;;;;;1.86;94.56;102504.75;10456323;28;20033;-65
2021/04/04 03:32:35;;;;;;;0.10;0.10;;;;;;;1.94;94.27;102502.69;10455947;28;20031;-66
2021/04/04 03:37:35;;;;;;;0.20;0.20;;;;;;;2.02;94.11;102503.22;10463526;28;20095;-65
2021/04/04 03:42:36;;;;;;;0.10;0.10;;;;;;;2.09;94.14;102501.19;10469682;28;20027;-66
2021/04/04 03:47:36;;;;;;;0.22;0.22;;;;;;;2.17;93.63;102496.47;10492194;28;20380;-67
2021/04/04 03:52:38;;;;;;;0.10;0.10;;;;;;;2.25;93.04;102486.50;10495674;28;20016;-66
2021/04/04 03:57:39;;;;;;;0.15;0.15;;;;;;;2.32;93.14;102488.88;10455944;28;20213;-65
2021/04/04 04:02:41;;;;;;;0.20;0.20;;;;;;;2.37;92.83;102473.75;10452426;28;20036;-66
2021/04/04 04:07:43;;;;;;;0.17;0.17;;;;;;;2.45;92.58;102482.19;10461158;28;20032;-66
2021/04/04 04:12:45;;;;;;;0.10;0.10;;;;;;;2.46;92.53;102471.59;10454753;28;20048;-66
2021/04/04 04:17:47;;;;;;;0.10;0.10;;;;;;;2.57;90.87;102471.13;10494374;28;20029;-65
2021/04/04 04:22:49;;;;;;;0.20;0.20;;;;;;;2.77;90.11;102467.63;10462572;22;20044;-70
2021/04/04 04:27:51;;;;;;;0.10;0.10;;;;;;;2.87;89.69;102453.09;10414761;28;20032;-70
2021/04/04 04:33:00;;;;;;;0.10;0.10;;;;;;;3.00;89.07;102456.06;10439027;28;20020;-70
2021/04/04 04:38:03;;;;;;;0.20;0.20;;;;;;;3.07;88.56;102443.44;10452031;28;20028;-70
2021/04/04 04:43:07;;;;;;;0.10;0.10;;;;;;;3.13;87.86;102449.28;10453343;28;20025;-70
2021/04/04 04:48:09;;;;;;;0.10;0.10;;;;;;;3.16;87.90;102454.41;10450112;28;20033;-70
2021/04/04 04:53:10;;;;;;;0.10;0.10;;;;;;;3.22;87.61;102442.72;10452914;28;20071;-70
2021/04/04 04:58:10;;;;;;;0.15;0.15;;;;;;;3.29;87.09;102440.69;10450972;28;20047;-70
2021/04/04 05:03:11;;;;;;;0.20;0.20;;;;;;;3.34;86.83;102434.25;10450826;28;20422;-70
2021/04/04 05:08:14;;;;;;;0.15;0.15;;;;;;;3.39;85.80;102434.88;10450385;28;20021;-70
2021/04/04 05:13:16;;;;;;;0.10;0.10;;;;;;;3.43;86.30;102434.72;10450812;28;20525;-70
2021/04/04 05:18:16;;;;;;;0.10;0.10;;;;;;;3.48;84.83;102428.31;10451815;28;20173;-70
2021/04/04 05:23:23;;;;;;;0.10;0.10;;;;;;;3.57;84.68;102416.47;10452860;28;20021;-70
2021/04/04 05:28:25;;;;;;;0.10;0.10;;;;;;;3.61;84.50;102421.53;10454258;28;20033;-70
2021/04/04 05:33:25;;;;;;;0.10;0.10;;;;;;;3.67;83.79;102417.75;10449181;28;20361;-70
2021/04/04 05:38:26;;;;;;;0.20;0.20;;;;;;;3.73;83.57;102424.50;10450840;28;20041;-70
2021/04/04 05:43:34;;;;;;;0.20;0.20;;;;;;;3.80;83.03;102428.53;10450076;28;20017;-70
2021/04/04 05:48:38;;;;;;;0.13;0.13;;;;;;;3.85;83.17;102422.09;10451647;28;20116;-70
2021/04/04 05:54:08;;;;;;;0.10;0.10;;;;;;;3.90;82.58;102407.81;10452790;28;20060;-70
2021/04/04 05:59:12;;;;;;;0.10;0.10;;;;;;;4.00;82.16;102414.34;10445514;28;20056;-70
2021/04/04 06:04:38;;;;;;;0.10;0.10;;;;;;;4.06;82.59;102406.97;10434301;28;20095;-70
2021/04/04 06:09:50;;;;;;;0.10;0.10;;;;;;;4.13;82.73;102407.53;10449386;28;20049;-69
2021/04/04 06:15:06;;;;;;;0.13;0.13;;;;;;;4.17;82.38;102408.22;10449911;28;20600;-70
2021/04/04 06:20:31;;;;;;;0.10;0.10;;;;;;;4.21;82.16;102400.06;10457734;28;20052;-70
2021/04/04 06:25:42;;;;;;;0.13;0.13;;;;;;;4.26;83.27;102402.47;10457936;28;20025;-70
2021/04/04 06:30:57;;;;;;;0.10;0.10;;;;;;;4.29;83.30;102400.53;10456403;28;20025;-70
2021/04/04 06:36:03;;;;;;;0.10;0.10;;;;;;;4.30;83.31;102402.25;10458565;28;20506;-70
2021/04/04 06:41:49;;;;;;;0.10;0.10;;;;;;;4.27;84.80;102405.00;10457515;28;20221;-70
2021/04/04 06:47:08;;;;;;;0.10;0.10;;;;;;;4.32;85.45;102410.91;10432037;28;20044;-70
2021/04/04 06:52:22;;;;;;;0.10;0.10;;;;;;;4.35;85.27;102409.91;10457350;28;20028;-70
2021/04/04 06:57:28;;;;;;;0.10;0.10;;;;;;;4.38;86.17;102409.75;10457784;28;20033;-70
2021/04/04 07:02:34;;;;;;;0.10;0.10;;;;;;;4.43;85.49;102407.72;10455443;28;20464;-69
2021/04/04 07:07:54;;;;;;;0.10;0.10;;;;;;;4.47;85.63;102388.16;10457430;28;20113;-70
2021/04/04 07:13:31;;;;;;;0.10;0.10;;;;;;;4.54;85.29;102394.81;10455460;28;20040;-69
2021/04/04 07:19:21;;;;;;;0.10;0.10;;;;;;;4.64;84.54;102400.44;10456242;28;20127;-70
2021/04/04 07:24:30;;;;;;;0.10;0.10;;;;;;;4.69;84.69;102393.13;10455503;28;20017;-70
2021/04/04 07:29:58;;;;;;;0.00;0.00;;;;;;;4.78;84.73;102398.88;10437482;28;20392;-70
2021/04/04 07:35:12;;;;;;;0.10;0.10;;;;;;;4.86;83.44;102394.00;10449592;28;20020;-70
2021/04/04 07:40:18;;;;;;;0.00;0.00;;;;;;;4.93;83.96;102380.38;10444946;28;20028;-69
2021/04/04 07:45:31;;;;;;;0.00;0.00;;;;;;;5.01;82.27;102387.03;10450838;28;20048;-70
2021/04/04 07:51:09;;;;;;;0.00;0.00;;;;;;;5.06;82.32;102382.34;10451335;28;20071;-69
2021/04/04 07:56:43;;;;;;;0.10;0.10;;;;;;;5.11;81.55;102388.22;10448353;28;20108;-70
2021/04/04 08:01:52;;;;;;;0.10;0.10;;;;;;;5.13;81.52;102381.91;10436113;28;20443;-70
2021/04/04 08:07:02;;;;;;;0.10;0.10;;;;;;;5.18;80.79;102387.81;10453859;28;20033;-70
2021/04/04 08:12:54;;;;;;;0.10;0.10;;;;;;;5.33;80.63;102383.44;10449933;28;20549;-70
2021/04/04 08:17:55;;;;;;;0.10;0.10;;;;;;;5.51;79.73;102383.34;10387499;28;20044;-70
2021/04/04 08:23:06;;;;;;;0.00;0.00;;;;;;;5.58;78.31;102376.75;10451687;28;20028;-69
2021/04/04 08:28:43;;;;;;;0.10;0.10;;;;;;;5.69;78.08;102379.63;10454633;28;20092;-70
2021/04/04 08:34:00;;;;;;;0.00;0.00;;;;;;;5.72;77.19;102368.00;10433222;28;20518;-70
2021/04/04 08:39:02;;;;;;;0.00;0.00;;;;;;;5.74;77.51;102382.00;10452354;28;20499;-70
2021/04/04 08:44:16;;;;;;;0.00;0.00;;;;;;;5.84;77.35;102375.22;10437937;28;20009;-70
2021/04/04 08:49:16;;;;;;;0.10;0.10;;;;;;;5.97;77.24;102367.47;10450861;28;20512;-69
2021/04/04 08:54:26;;;;;;;0.10;0.10;;;;;;;6.07;76.24;102369.44;10449677;28;20021;-70
2021/04/04 08:59:32;;;;;;;0.00;0.00;;;;;;;6.12;76.64;102366.53;10450722;28;20052;-69
2021/04/04 09:04:39;;;;;;;0.00;0.00;;;;;;;6.11;77.01;102362.19;10452194;28;20479;-69
2021/04/04 09:09:48;;;;;;;0.00;0.00;;;;;;;6.06;76.74;102366.91;10451561;28;20039;-69
2021/04/04 09:14:49;;;;;;;0.00;0.00;;;;;;;6.15;77.98;102366.34;10452700;28;20074;-69
2021/04/04 09:20:00;;;;;;;0.00;0.00;;;;;;;6.31;76.59;102361.84;10452155;28;20025;-69
2021/04/04 09:25:07;;;;;;;0.00;0.00;;;;;;;6.46;75.77;102345.97;10449622;28;20439;-69
2021/04/04 09:30:23;;;;;;;0.10;0.10;;;;;;;6.57;74.63;102343.47;10448457;28;20027;-69
2021/04/04 09:35:23;;;;;;;0.00;0.00;;;;;;;6.53;74.84;102345.47;10435488;28;20029;-69
2021/04/04 09:40:25;;;;;;;0.10;0.10;;;;;;;6.52;75.34;102342.94;10451555;28;20468;-69
2021/04/04 09:45:25;;;;;;;0.00;0.00;;;;;;;6.42;74.63;102336.50;10449270;28;20432;-69
2021/04/04 09:50:31;;;;;;;0.00;0.00;;;;;;;6.63;74.93;102336.94;10449150;28;20025;-69
2021/04/04 09:55:32;;;;;;;0.00;0.00;;;;;;;6.86;71.79;102325.72;10450766;28;20036;-70
2021/04/04 10:00:38;;;;;;;0.00;0.00;;;;;;;7.15;69.89;102320.34;10449403;28;20049;-70
2021/04/04 10:05:42;;;;;;;0.00;0.00;;;;;;;7.23;67.57;102321.53;10449735;28;20049;-69
2021/04/04 10:10:47;;;;;;;0.00;0.00;;;;;;;7.30;67.96;102315.84;10449219;28;20028;-70
2021/04/04 10:15:49;;;;;;;0.00;0.00;;;;;;;7.45;67.13;102314.84;10452091;28;20112;-70
2021/04/04 10:20:55;;;;;;;0.00;0.00;;;;;;;7.57;66.71;102299.91;10447256;28;20091;-69
2021/04/04 10:26:07;;;;;;;0.00;0.00;;;;;;;7.62;67.74;102303.97;10447825;28;20174;-70
2021/04/04 10:31:07;;;;;;;0.00;0.00;;;;;;;7.55;68.88;102302.66;10427413;28;20017;-69
2021/04/04 10:36:14;;;;;;;0.00;0.00;;;;;;;7.45;70.00;102298.94;10446824;28;20025;-69
2021/04/04 10:41:25;;;;;;;0.00;0.00;;;;;;;7.35;70.66;102289.88;10446652;28;20029;-69
2021/04/04 10:46:30;;;;;;;0.00;0.00;;;;;;;7.14;70.77;102286.88;10448676;28;20029;-70
2021/04/04 10:51:30;;;;;;;;;;;;;;;7.05;72.37;102285.66;10447091;28;20017;-69
2021/04/04 10:56:31;;;;;;;0.00;0.00;;;;;;;7.16;71.47;102282.31;10459760;28;19908;-70
2021/04/04 11:01:33;;;;;;;0.00;0.00;;;;;;;7.15;70.56;102280.59;10438219;28;20279;-70
2021/04/04 11:06:35;;;;;;;0.00;0.00;;;;;;;7.21;70.81;102262.53;10453870;28;20511;-69
2021/04/04 11:11:37;;;;;;;0.00;0.00;;;;;;;7.47;70.04;102259.91;10455493;28;20013;-70
2021/04/04 11:16:38;;;;;;;0.00;0.00;;;;;;;7.51;67.77;102244.66;10455200;28;20105;-69
2021/04/04 11:21:42;;;;;;;0.03;0.03;;;;;;;7.46;68.38;102244.94;10454694;28;20028;-69
2021/04/04 11:26:49;;;;;;;0.00;0.00;;;;;;;7.48;69.35;102235.09;10454204;28;20365;-69
2021/04/04 11:31:55;;;;;;;0.00;0.00;;;;;;;7.56;69.83;102229.25;10456445;28;20017;-70
2021/04/04 11:36:57;;;;;;;0.00;0.00;;;;;;;7.57;70.25;102226.50;10454525;28;20410;-70
2021/04/04 11:42:01;;;;;;;0.00;0.00;;;;;;;7.37;71.07;102219.91;10462984;28;20017;-70
2021/04/04 11:47:04;;;;;;;0.10;0.10;;;;;;;7.55;70.73;102211.66;10436318;28;20021;-70
2021/04/04 11:52:07;;;;;;;0.00;0.00;;;;;;;7.82;69.95;102206.22;10455216;28;20023;-70
2021/04/04 11:57:08;;;;;;;0.00;0.00;;;;;;;7.69;69.90;102201.78;10454998;28;20108;-70
2021/04/04 12:02:10;;;;;;;0.00;0.00;;;;;;;7.57;71.08;102194.69;10453860;28;20496;-70
2021/04/04 12:07:16;;;;;;;0.00;0.00;;;;;;;7.59;70.90;102182.19;10456934;28;20029;-70
2021/04/04 12:12:16;;;;;;;0.00;0.00;;;;;;;7.65;72.33;102181.75;10453484;28;20025;-70
2021/04/04 12:17:19;;;;;;;0.10;0.10;;;;;;;7.61;71.53;102171.44;10447526;28;20025;-70
2021/04/04 12:22:20;;;;;;;0.00;0.00;;;;;;;7.88;70.99;102158.03;10448357;28;20029;-70
2021/04/04 12:27:29;;;;;;;0.00;0.00;;;;;;;8.16;69.58;102144.50;10452202;28;20028;-70
2021/04/04 12:32:32;;;;;;;0.00;0.00;;;;;;;8.05;69.92;102128.50;10453549;28;20025;-70
2021/04/04 12:37:38;;;;;;;0.00;0.00;;;;;;;7.99;70.71;102128.94;10454701;28;20048;-70
2021/04/04 12:42:39;;;;;;;0.00;0.00;;;;;;;7.96;72.04;102121.22;10453931;28;20040;-70
2021/04/04 12:47:40;;;;;;;0.00;0.00;;;;;;;8.20;70.31;102117.72;10454968;28;20017;-70
2021/04/04 12:52:47;;;;;;;0.00;0.00;;;;;;;8.16;69.62;102117.13;10445178;28;20025;-70
2021/04/04 12:57:56;;;;;;;0.00;0.00;;;;;;;8.01;70.56;102102.31;10449751;28;20064;-70
2021/04/04 13:03:22;;;;;;;0.00;0.00;;;;;;;8.18;70.53;102087.81;10446499;28;20038;-70
2021/04/04 13:08:26;;;;;;;0.00;0.00;;;;;;;8.09;69.86;102089.34;10446580;28;20052;-70
2021/04/04 13:13:28;;;;;;;0.00;0.00;;;;;;;7.98;70.76;102084.81;10428637;28;20019;-69
2021/04/04 13:18:36;;;;;;;0.00;0.00;;;;;;;7.92;70.97;102061.38;10449657;28;20480;-69
2021/04/04 13:23:42;;;;;;;0.00;0.00;;;;;;;8.00;69.36;102045.75;10451303;28;20071;-70
2021/04/04 13:28:43;;;;;;;0.00;0.00;;;;;;;8.02;69.91;102057.06;10444828;28;20409;-70
2021/04/04 13:33:45;;;;;;;0.00;0.00;;;;;;;7.98;70.30;102042.34;10450553;28;20021;-69
2021/04/04 13:38:50;;;;;;;0.00;0.00;;;;;;;7.86;70.91;102036.13;10450273;28;20032;-69
2021/04/04 13:43:55;;;;;;;0.00;0.00;;;;;;;7.94;70.73;102022.28;10444556;28;20029;-69
2021/04/04 13:48:59;;;;;;;0.00;0.00;;;;;;;8.13;69.74;102021.78;10448753;28;20021;-69
2021/04/04 13:54:13;;;;;;;0.00;0.00;;;;;;;8.03;69.95;102016.34;10449646;28;20518;-69
2021/04/04 13:59:16;;;;;;;0.00;0.00;;;;;;;7.83;70.33;102016.97;10449052;28;20491;-70
2021/04/04 14:04:20;;;;;;;0.00;0.00;;;;;;;7.69;72.12;102015.31;10449029;28;20533;-70
2021/04/04 14:09:21;;;;;;;0.03;0.03;;;;;;;7.67;71.57;102004.78;10444155;28;20021;-69
2021/04/04 14:14:22;;;;;;;0.00;0.00;;;;;;;7.60;71.30;102003.56;10450188;28;20020;-69
2021/04/04 14:19:25;;;;;;;0.00;0.00;;;;;;;7.67;70.90;101999.47;10448995;28;20048;-70
2021/04/04 14:24:26;;;;;;;0.00;0.00;;;;;;;7.66;70.99;101992.50;10443725;28;20025;-68
2021/04/04 14:29:26;;;;;;;0.00;0.00;;;;;;;7.64;71.35;101970.53;10417266;28;20024;-69
2021/04/04 14:34:27;;;;;;;0.00;0.00;;;;;;;7.69;71.11;101963.09;10444892;28;20017;-69
2021/04/04 14:39:27;;;;;;;0.00;0.00;;;;;;;7.81;70.39;101953.41;10453189;28;20021;-69
2021/04/04 14:44:27;;;;;;;0.03;0.03;;;;;;;7.81;71.81;101941.94;10457778;28;20025;-69
2021/04/04 14:49:28;;;;;;;0.00;0.00;;;;;;;7.80;71.09;101930.50;10456525;28;20298;-69
2021/04/04 14:54:29;;;;;;;0.00;0.00;;;;;;;7.80;71.19;101919.88;10458166;28;20475;-70
2021/04/04 14:59:29;;;;;;;0.00;0.00;;;;;;;7.85;71.14;101924.81;10457157;28;20468;-69
2021/04/04 15:04:29;;;;;;;0.00;0.00;;;;;;;7.78;70.16;101913.84;10458033;28;20083;-69
2021/04/04 15:09:29;;;;;;;0.00;0.00;;;;;;;7.69;71.06;101904.75;10455210;28;20025;-69
2021/04/04 15:14:30;;;;;;;0.00;0.00;;;;;;;7.60;71.53;101913.41;10457726;28;20073;-69
2021/04/04 15:19:30;;;;;;;0.00;0.00;;;;;;;7.48;72.24;101909.00;10457208;28;20025;-69
2021/04/04 15:24:30;;;;;;;0.00;0.00;;;;;;;7.36;72.10;101893.97;10455580;28;20349;-69
2021/04/04 15:29:31;;;;;;;0.00;0.00;;;;;;;7.29;72.75;101877.69;10456519;28;20259;-70
2021/04/04 15:34:31;;;;;;;0.00;0.00;;;;;;;7.17;73.75;101868.81;10457652;28;20017;-69
2021/04/04 15:39:31;;;;;;;0.00;0.00;;;;;;;7.13;74.45;101872.66;10456144;28;20265;-69
2021/04/04 15:44:32;;;;;;;0.00;0.00;;;;;;;7.08;74.70;101850.09;10456152;28;20036;-69
2021/04/04 15:49:32;;;;;;;0.00;0.00;;;;;;;7.02;74.16;101848.75;10455294;28;20039;-69
2021/04/04 15:54:32;;;;;;;0.00;0.00;;;;;;;6.94;75.23;101845.81;10455983;28;20082;-69
2021/04/04 15:59:33;;;;;;;0.00;0.00;;;;;;;6.90;75.18;101833.75;10440171;28;20028;-69
2021/04/04 16:04:33;;;;;;;0.00;0.00;;;;;;;6.80;75.15;101821.16;10415330;28;20108;-69
2021/04/04 16:09:34;;;;;;;0.00;0.00;;;;;;;6.76;75.77;101806.44;10414866;28;20323;-69
2021/04/04 16:14:34;;;;;;;0.00;0.00;;;;;;;6.73;75.99;101801.38;10414879;28;20101;-70
2021/04/04 16:19:35;;;;;;;0.00;0.00;;;;;;;6.70;76.48;101800.75;10433684;28;20336;-70
2021/04/04 16:24:35;;;;;;;0.00;0.00;;;;;;;6.63;77.24;101788.91;10485980;23;20097;-70
2021/04/04 16:29:35;;;;;;;0.00;0.00;;;;;;;6.60;77.29;101784.66;10466372;28;20024;-72
2021/04/04 16:34:36;;;;;;;0.00;0.00;;;;;;;6.55;77.91;101777.06;10490674;28;20089;-72
2021/04/04 16:39:36;;;;;;;0.00;0.00;;;;;;;6.52;78.90;101748.16;10494450;28;20494;-72
2021/04/04 16:44:37;;;;;;;0.00;0.00;;;;;;;6.48;77.68;101743.19;10495035;28;20037;-72
2021/04/04 16:49:37;;;;;;;0.00;0.00;;;;;;;6.41;77.73;101731.38;10494190;28;20039;-72
2021/04/04 16:54:37;;;;;;;0.10;0.10;;;;;;;6.37;78.05;101728.09;10494928;28;20021;-72
2021/04/04 16:59:38;;;;;;;0.03;0.03;;;;;;;6.39;78.34;101735.91;10494332;28;20357;-72
2021/04/04 17:04:38;;;;;;;0.00;0.00;;;;;;;6.36;78.15;101729.03;10489037;28;20532;-72
2021/04/04 17:09:38;;;;;;;0.00;0.00;;;;;;;6.35;78.54;101717.63;10491791;28;20361;-73
2021/04/04 17:14:39;;;;;;;0.00;0.00;;;;;;;6.35;78.07;101692.97;10492774;28;20044;-72
2021/04/04 17:19:39;;;;;;;0.00;0.00;;;;;;;6.33;78.42;101671.06;10492310;28;20032;-72
2021/04/04 17:24:40;;;;;;;0.03;0.03;;;;;;;6.32;78.83;101664.09;10494855;28;20047;-72
2021/04/04 17:29:40;;;;;;;0.00;0.00;;;;;;;6.27;78.73;101651.16;10492869;28;20028;-72
2021/04/04 17:34:41;;;;;;;0.00;0.00;;;;;;;6.25;78.03;101620.47;10492244;28;20016;-72
2021/04/04 17:39:42;;;;;;;0.00;0.00;;;;;;;6.23;78.69;101627.72;10492729;28;20259;-72
2021/04/04 17:44:42;;;;;;;0.00;0.00;;;;;;;6.21;78.75;101614.56;10492815;28;20108;-70
2021/04/04 17:49:42;;;;;;;0.00;0.00;;;;;;;6.19;78.61;101597.97;10492525;28;20426;-71
2021/04/04 17:54:43;;;;;;;0.00;0.00;;;;;;;6.16;78.94;101590.25;10490811;28;20413;-71
2021/04/04 17:59:44;;;;;;;0.00;0.00;;;;;;;6.12;78.38;101579.06;10490063;28;20024;-70
2021/04/04 18:04:49;;;;;;;0.05;0.05;;;;;;;6.07;78.31;101551.25;10490620;28;20282;-72
2021/04/04 18:15:08;;;;;;;0.00;0.00;;;;;;;6.00;78.63;101531.50;10527952;28;20391;-72
2021/04/04 18:20:10;;;;;;;0.00;0.00;;;;;;;5.98;78.97;101525.47;10477733;28;20025;-71
2021/04/04 18:25:11;;;;;;;0.00;0.00;;;;;;;5.98;78.56;101525.47;10461982;28;20118;-72
2021/04/04 18:30:14;;;;;;;0.10;0.10;;;;;;;5.99;78.90;101524.53;10478626;28;20029;-71
2021/04/04 18:35:14;;;;;;;0.08;0.08;;;;;;;6.00;77.76;101515.66;10490264;28;20490;-72
2021/04/04 18:40:15;;;;;;;0.00;0.00;;;;;;;6.01;77.61;101499.66;10489755;28;20177;-72
2021/04/04 18:45:16;;;;;;;0.00;0.00;;;;;;;6.01;77.55;101475.84;10490298;28;20040;-72
2021/04/04 18:50:16;;;;;;;0.00;0.00;;;;;;;5.96;77.93;101461.28;10489710;28;20021;-72
2021/04/04 18:55:17;;;;;;;0.00;0.00;;;;;;;5.94;77.67;101473.78;10490088;28;20087;-70
2021/04/04 19:00:19;;;;;;;0.10;0.10;;;;;;;5.96;77.85;101462.13;10490792;28;20024;-73
2021/04/04 19:05:21;;;;;;;0.00;0.00;;;;;;;5.91;77.68;101432.53;10489705;28;20032;-72
2021/04/04 19:10:25;;;;;;;0.05;0.05;;;;;;;5.95;77.70;101414.66;10504290;28;20019;-72
2021/04/04 19:15:25;;;;;;;0.10;0.10;;;;;;;5.94;77.79;101405.03;10490153;28;20016;-72
2021/04/04 19:20:26;;;;;;;0.08;0.08;;;;;;;5.89;77.65;101374.44;10489452;28;20154;-72
2021/04/04 19:25:26;;;;;;;0.10;0.10;;;;;;;5.82;77.88;101361.81;10493299;28;20445;-72
2021/04/04 19:30:26;;;;;;;0.00;0.00;;;;;;;5.75;77.82;101339.44;10495853;28;20032;-72
2021/04/04 19:35:27;;;;;;;0.03;0.03;;;;;;;5.65;78.29;101331.38;10496463;28;20463;-72
2021/04/04 19:40:27;;;;;;;0.00;0.00;;;;;;;5.56;78.48;101311.75;10494121;28;20029;-72
2021/04/04 19:45:27;;;;;;;0.00;0.00;;;;;;;5.53;78.96;101290.00;10493926;28;20036;-72
2021/04/04 19:50:28;;;;;;;0.00;0.00;;;;;;;5.51;78.43;101291.91;10493937;28;20255;-72
2021/04/04 19:55:28;;;;;;;0.10;0.10;;;;;;;5.47;79.42;101290.44;10492951;28;20378;-72
2021/04/04 20:00:29;;;;;;;0.13;0.13;;;;;;;5.44;79.20;101283.63;10492399;28;20056;-70
2021/04/04 20:05:30;;;;;;;0.10;0.10;;;;;;;5.40;79.14;101267.13;10491616;28;20028;-71
2021/04/04 20:10:30;;;;;;;0.10;0.10;;;;;;;5.33;79.31;101268.56;10491543;28;20379;-71
2021/04/04 20:15:30;;;;;;;0.03;0.03;;;;;;;5.30;79.83;101260.88;10491266;28;20533;-71
2021/04/04 20:20:31;;;;;;;0.10;0.10;;;;;;;5.25;79.94;101257.72;10504808;28;20289;-72
2021/04/04 20:25:31;;;;;;;0.00;0.00;;;;;;;5.19;79.76;101240.53;10493878;28;20032;-72
2021/04/04 20:30:32;;;;;;;0.10;0.10;;;;;;;5.13;80.07;101219.03;10490800;28;20024;-72
2021/04/04 20:40:37;;;;;;;0.00;0.00;;;;;;;5.07;80.43;101182.50;10497841;28;20025;-72
2021/04/04 20:45:38;;;;;;;0.03;0.03;;;;;;;5.01;80.37;101181.16;10494127;28;20024;-71
2021/04/04 20:50:38;;;;;;;0.10;0.10;;;;;;;4.97;80.69;101161.22;10493098;28;20028;-71
2021/04/04 20:55:38;;;;;;;0.00;0.00;;;;;;;4.94;81.13;101150.88;10494653;28;20074;-71
2021/04/04 21:00:40;;;;;;;0.10;0.10;;;;;;;4.90;80.90;101138.88;10493656;28;20039;-71
2021/04/04 21:05:40;;;;;;;0.10;0.10;;;;;;;4.90;80.31;101126.53;10493875;28;20028;-72
2021/04/04 21:10:40;;;;;;;0.10;0.10;;;;;;;4.93;79.86;101113.09;10492199;28;20024;-72
2021/04/04 21:15:41;;;;;;;0.10;0.10;;;;;;;4.89;80.50;101089.69;10494186;28;20024;-72
2021/04/04 21:20:41;;;;;;;0.10;0.10;;;;;;;4.83;79.96;101093.66;10493178;28;20787;-72
2021/04/04 21:25:41;;;;;;;0.10;0.10;;;;;;;4.78;80.49;101079.94;10493671;28;20043;-72
2021/04/04 21:30:42;;;;;;;0.10;0.10;;;;;;;4.72;81.10;101083.88;10492751;28;20671;-72
2021/04/04 21:35:42;;;;;;;0.10;0.10;;;;;;;4.73;81.19;101079.44;10488815;28;20028;-72
2021/04/04 21:40:43;;;;;;;0.10;0.10;;;;;;;4.73;81.14;101042.50;10490884;28;20062;-71
2021/04/04 21:45:43;;;;;;;0.00;0.00;;;;;;;4.74;80.56;101012.50;10491832;28;20131;-72
2021/04/04 21:50:43;;;;;;;0.00;0.00;;;;;;;4.79;80.33;100999.81;10491438;28;20259;-72
2021/04/04 21:55:46;;;;;;;0.20;0.20;;;;;;;4.81;80.30;100999.69;10491761;28;20027;-72
2021/04/04 22:00:49;;;;;;;0.00;0.00;;;;;;;4.78;80.46;100982.31;10490121;28;20320;-70
2021/04/04 22:05:49;;;;;;;0.20;0.20;;;;;;;4.78;80.03;100949.78;10488609;28;20429;-71
2021/04/04 22:10:49;;;;;;;0.10;0.10;;;;;;;4.78;80.39;100949.78;10490121;28;20013;-70
2021/04/04 22:15:51;;;;;;;0.03;0.03;;;;;;;4.74;80.63;100914.88;10491994;28;20025;-70
2021/04/04 22:20:52;;;;;;;0.10;0.10;;;;;;;4.79;79.90;100902.16;10490057;28;20039;-70
2021/04/04 22:25:52;;;;;;;0.08;0.08;;;;;;;4.77;79.89;100883.00;10464458;22;20045;-69
2021/04/04 22:30:54;;;;;;;0.10;0.10;;;;;;;4.80;80.02;100876.59;10485349;28;20426;-69
2021/04/04 22:35:54;;;;;;;0.00;0.00;;;;;;;4.79;80.44;100848.53;10491255;28;20031;-69
2021/04/04 22:40:55;;;;;;;0.10;0.10;;;;;;;4.79;80.30;100835.34;10491602;28;20024;-68
2021/04/04 22:45:55;;;;;;;0.20;0.20;;;;;;;4.78;80.06;100804.66;10492085;28;20029;-68
2021/04/04 22:50:56;;;;;;;0.10;0.10;;;;;;;4.79;79.90;100799.22;10491377;28;20063;-68
2021/04/04 22:55:56;;;;;;;0.10;0.10;;;;;;;4.74;80.25;100789.06;10490485;28;20024;-69
2021/04/04 23:00:56;;;;;;;0.03;0.03;;;;;;;4.72;80.47;100771.69;10494208;28;20029;-69
2021/04/04 23:05:57;;;;;;;0.10;0.10;;;;;;;4.68;80.34;100754.41;10498693;28;20027;-70
2021/04/04 23:10:57;;;;;;;0.10;0.10;;;;;;;4.69;80.27;100750.81;10498634;28;20020;-70
2021/04/04 23:15:59;;;;;;;0.10;0.10;;;;;;;4.67;80.76;100736.91;10498506;28;20099;-71
2021/04/04 23:20:59;;;;;;;0.10;0.10;;;;;;;4.66;80.06;100725.50;10497817;28;20282;-70
2021/04/04 23:25:59;;;;;;;0.10;0.10;;;;;;;4.66;79.97;100714.97;10496932;28;20032;-69
2021/04/04 23:31:00;;;;;;;0.00;0.00;;;;;;;4.67;79.80;100705.25;10479473;28;20021;-70
2021/04/04 23:36:00;;;;;;;0.10;0.10;;;;;;;4.73;79.59;100679.19;10498108;28;20048;-69
2021/04/04 23:41:01;;;;;;;0.10;0.10;;;;;;;4.69;79.83;100655.84;10497270;28;20055;-69